Weather at Lotnisko Jasienna

Public forecast

Using degrees Celsius for public forecast. Weather courtesy of forecast.io.

Closest aviation weather report (METAR) to Lotnisko Jasienna

Closest report is Poprad-Tatry Airport, 44.6 nm (82.6 km) SSW.

2024/05/28 17:00 (retrieved 11 minutes ago)

LZTT 281700Z 06005KT 030V090 9999 FEW066 19/07 Q1015 NOSIG

Closest aviation forecast (TAF) to Lotnisko Jasienna

Closest forecast is Poprad-Tatry Airport, 44.6 nm (82.6 km) SSW.

2024/05/28 12:06 (retrieved 5 hours ago)

TAF LZTT 281115Z 2812/2912 08008KT CAVOK PROB40 TEMPO 2812/2819 9999 SHRA SCT035CB BECMG 2818/2820 26004KT BECMG 2907/2909 05011KT TEMPO 2909/2912 9999 SHRA SCT033CB